Latest Weather Observations for Biloela

IDQ60801

Issued at 7:32 pm EST Thursday 28 May 2015 (issued every 30 minutes, with the page automatically refreshed every 10 minutes)

About weather observations | Map of weather stations | Latest weather observations for QLD | Other Formats
Station Details ID: 039089 Name: THANGOOL AIRPORT Lat: -24.49 Lon: 150.57 Height: 193.1 m
Data from the previous 72 hours. | See also: Recent months at Biloela
Date/Time
EST
Temp
°C
App
Temp
°C
Dew
Point
Rel
Hum
%
Delta-T
°C
Wind Press
QNH
hPa
Press
MSL
hPa
Rain
since 9 am
mm
Dir
 
Spd
km/h
Gust
km/h
Spd
kts
Gust
kts
28/07:30pm 19.9 20.0 14.0 69 3.4 ENE 6 11 3 6 1022.9 - 0.0
28/07:00pm 21.2 20.2 14.6 66 3.9 ENE 13 15 7 8 1022.2 - 0.0
28/06:30pm 22.3 21.6 14.2 60 4.8 NE 11 15 6 8 1021.7 - 0.0
28/06:00pm 22.5 21.5 12.4 52 5.8 E 9 11 5 6 1021.3 1020.9 0.0
28/05:30pm 23.7 22.7 12.4 49 6.5 NE 9 11 5 6 1020.9 - 0.0
28/05:00pm 25.0 24.2 11.6 43 7.7 E 7 9 4 5 1020.7 - 0.0
28/04:30pm 24.8 24.0 11.7 44 7.5 ESE 7 11 4 6 1020.6 - 0.0
28/04:00pm 25.3 24.0 11.1 41 8.1 ESE 9 13 5 7 1020.3 - 0.0
28/03:30pm 26.3 24.9 10.9 38 8.8 E 9 17 5 9 1020.4 - 0.0
28/03:00pm 27.6 25.8 10.8 35 9.6 NW 11 17 6 9 1020.3 1019.8 0.0
28/02:30pm 27.4 26.0 11.0 36 9.4 NNW 9 13 5 7 1020.5 - 0.0
28/02:00pm 27.4 25.8 11.4 37 9.2 N 11 15 6 8 1020.7 - 0.0
28/01:30pm 26.3 24.9 10.9 38 8.8 NNE 9 17 5 9 1021.0 - 0.0
28/01:00pm 27.0 26.6 12.3 40 8.6 NNE 6 9 3 5 1021.3 - 0.0
28/12:30pm 25.8 24.9 12.6 44 7.7 WNW 9 15 5 8 1021.8 - 0.0
28/12:00pm 23.7 23.2 12.7 50 6.3 E 7 11 4 6 1022.5 1022.1 0.0
28/11:30am 24.7 24.4 13.3 49 6.7 NE 7 13 4 7 1022.9 - 0.0
28/11:00am 23.8 23.2 13.4 52 6.1 E 9 15 5 8 1023.4 - 0.0
28/10:30am 23.2 23.2 14.2 57 5.3 SE 7 13 4 7 1023.8 - 0.0
28/10:00am 22.3 22.4 14.4 61 4.7 SE 7 11 4 6 1024.0 - 0.0
28/09:30am 20.7 20.4 14.4 67 3.7 E 9 13 5 7 1024.2 - 0.0
28/09:00am 19.4 19.7 14.9 75 2.6 ESE 7 13 4 7 1024.4 1023.9 0.0
28/08:30am 17.6 17.8 14.7 83 1.7 ESE 7 11 4 6 1024.1 - 0.0
28/08:00am 14.8 14.5 13.2 90 0.9 E 7 9 4 5 1023.9 - 0.0
28/07:30am 12.8 11.8 12.2 96 0.3 E 9 11 5 6 1023.5 - 0.0
28/07:00am 10.2 9.0 9.4 95 0.4 ESE 6 7 3 4 1023.4 - 0.0
28/06:30am 10.3 8.9 9.7 96 0.3 E 7 9 4 5 1023.1 - 0.0
28/06:23am 9.6 8.2 8.8 95 0.4 E 6 9 3 5 1023.0 - 0.0
28/06:07am 10.7 9.6 10.1 96 0.3 ESE 6 7 3 4 1022.9 - 0.0
28/06:00am 10.6 9.5 10.0 96 0.3 E 6 7 3 4 1022.8 1022.4 0.0
28/05:30am 9.3 7.8 8.4 94 0.4 ESE 6 7 3 4 1022.5 - 0.0
28/05:00am 9.7 9.0 8.6 93 0.5 E 2 6 1 3 1022.3 - 0.0
28/04:30am 9.9 8.9 8.7 92 0.6 E 4 6 2 3 1021.9 - 0.0
28/04:12am 10.8 9.7 9.9 94 0.5 E 6 7 3 4 1021.8 - 0.0
28/04:00am 10.3 9.0 9.1 92 0.6 E 6 9 3 5 1021.9 - 0.0
28/03:52am 10.7 9.5 9.6 93 0.6 E 6 7 3 4 1022.0 - 0.0
28/03:30am 12.2 11.3 11.4 95 0.4 E 7 9 4 5 1021.9 - 0.0
28/03:00am 11.7 12.0 10.8 94 0.5 CALM 0 0 0 0 1021.9 1021.5 0.0
28/02:30am 11.6 11.7 10.3 92 0.7 CALM 0 0 0 0 1021.8 - 0.0
28/02:00am 11.8 11.2 10.4 91 0.7 ESE 4 9 2 5 1021.9 - 0.0
28/01:30am 12.0 10.7 10.1 88 1.0 E 7 11 4 6 1022.2 - 0.0
28/01:00am 12.7 11.4 11.4 92 0.7 E 9 11 5 6 1022.4 - 0.0
28/12:30am 12.5 12.7 10.7 89 0.9 CALM 0 0 0 0 1022.6 - 0.0
28/12:00am 13.3 13.7 11.4 88 1.0 CALM 0 0 0 0 1022.8 1022.4 0.0
 
Date/Time
EST
Temp
°C
App
Temp
°C
Dew
Point
Rel
Hum
%
Delta-T
°C
Wind Press
QNH
hPa
Press
MSL
hPa
Rain
since 9 am
mm
Dir
 
Spd
km/h
Gust
km/h
Spd
kts
Gust
kts
27/11:30pm 14.1 14.5 11.1 82 1.6 CALM 0 0 0 0 1023.0 - 0.0
27/11:00pm 15.3 14.3 12.2 82 1.7 ESE 9 13 5 7 1022.5 - 0.0
27/10:30pm 14.3 13.4 11.3 82 1.6 E 7 9 4 5 1022.7 - 0.0
27/10:00pm 15.9 16.7 12.6 81 1.8 CALM 0 0 0 0 1022.8 - 0.0
27/09:30pm 16.7 17.2 11.6 72 2.8 CALM 0 0 0 0 1022.6 - 0.0
27/09:00pm 18.6 18.5 13.2 71 3.1 SE 6 6 3 3 1022.3 1021.9 0.0
27/08:30pm 19.3 18.9 13.0 67 3.6 ENE 7 9 4 5 1022.1 - 0.0
27/08:00pm 19.9 19.6 13.4 66 3.7 E 7 9 4 5 1022.1 - 0.0
27/07:30pm 20.3 20.2 13.3 64 4.0 SE 6 7 3 4 1022.0 - 0.0
27/07:00pm 20.9 20.6 13.4 62 4.3 E 7 9 4 5 1021.6 - 0.0
27/06:30pm 20.6 20.1 12.6 60 4.6 NE 7 9 4 5 1021.5 - 0.0
27/06:00pm 22.2 21.1 13.0 56 5.3 NE 11 13 6 7 1021.1 1020.7 0.0
27/05:30pm 21.7 21.9 11.7 53 5.6 SSE 2 7 1 4 1020.7 - 0.0
27/05:00pm 23.1 22.4 12.1 50 6.3 SSE 7 11 4 6 1020.4 - 0.0
27/04:30pm 23.6 23.0 11.6 47 6.8 SE 6 9 3 5 1020.3 - 0.0
27/04:00pm 24.5 23.3 11.5 44 7.4 ESE 9 13 5 7 1020.1 - 0.0
27/03:30pm 24.9 23.7 11.5 43 7.6 SSE 9 15 5 8 1020.1 - 0.0
27/03:00pm 25.9 23.9 11.6 40 8.2 S 13 20 7 11 1020.3 1019.8 0.0
27/02:30pm 26.8 25.5 11.3 38 8.9 SW 9 15 5 8 1020.4 - 0.0
27/02:00pm 25.4 23.7 9.7 37 8.7 SSE 9 15 5 8 1020.4 - 0.0
27/01:30pm 25.9 24.6 10.1 37 8.8 WSW 7 17 4 9 1020.7 - 0.0
27/01:00pm 25.7 24.6 10.7 39 8.5 S 7 15 4 8 1020.9 - 0.0
27/12:30pm 24.5 22.7 10.8 42 7.7 W 11 22 6 12 1021.6 - 0.0
27/12:00pm 24.3 23.6 11.3 44 7.3 SSE 6 17 3 9 1022.5 1022.1 0.0
27/11:30am 23.9 23.2 11.9 47 6.9 SE 7 11 4 6 1023.1 - 0.0
27/11:00am 23.1 22.2 11.2 47 6.7 S 7 11 4 6 1023.8 - 0.0
27/10:30am 22.4 22.4 13.5 57 5.2 SSE 6 11 3 6 1024.3 - 0.0
27/10:00am 20.7 20.2 13.9 65 4.0 S 9 15 5 8 1024.6 - 0.0
27/09:30am 18.9 18.7 13.7 72 3.0 SSE 7 13 4 7 1024.8 - 0.0
27/09:00am 18.0 17.5 13.9 77 2.3 ESE 9 13 5 7 1024.6 1024.1 0.0
27/08:30am 16.3 16.3 14.1 87 1.3 SE 7 11 4 6 1024.6 - 0.0
27/08:00am 14.2 13.8 13.1 93 0.6 ESE 7 9 4 5 1024.5 - 0.0
27/07:30am 12.6 12.1 12.0 96 0.3 SE 6 9 3 5 1024.3 - 0.0
27/07:00am 11.7 10.9 11.2 97 0.3 ESE 6 7 3 4 1024.0 - 0.0
27/06:30am 10.8 9.6 10.2 96 0.3 E 7 9 4 5 1023.8 - 0.0
27/06:23am 10.6 9.3 10.0 96 0.3 E 7 9 4 5 1023.8 - 0.0
27/06:00am 10.7 10.7 9.9 95 0.4 CALM 0 0 0 0 1023.4 1022.9 0.0
27/05:38am 10.8 10.9 10.0 95 0.4 CALM 0 0 0 0 1023.3 - 0.0
27/05:30am 10.5 10.4 9.6 94 0.5 CALM 0 0 0 0 1023.1 - 0.0
27/05:10am 10.1 9.9 9.2 94 0.5 CALM 0 0 0 0 1022.8 - 0.0
27/05:00am 10.3 10.2 9.4 94 0.5 CALM 0 0 0 0 1022.8 - 0.0
27/04:30am 10.6 10.5 9.5 93 0.6 CALM 0 0 0 0 1022.6 - 0.0
27/04:00am 10.8 10.8 9.7 93 0.6 CALM 0 0 0 0 1022.6 - 0.0
27/03:30am 11.0 10.9 9.6 91 0.7 CALM 0 4 0 2 1022.7 - 0.0
27/03:00am 12.2 11.3 11.3 94 0.5 ESE 7 11 4 6 1022.9 1022.5 0.0
27/02:30am 11.8 10.8 10.4 91 0.7 ESE 6 7 3 4 1023.3 - 0.0
27/02:00am 11.4 10.0 9.7 89 0.9 E 7 9 4 5 1023.4 - 0.0
27/01:30am 12.5 12.9 11.1 91 0.7 CALM 0 0 0 0 1023.7 - 0.0
27/01:00am 12.0 10.9 10.1 88 1.0 E 6 7 3 4 1023.8 - 0.0
27/12:30am 12.7 11.8 10.6 87 1.1 E 6 7 3 4 1023.9 - 0.0
27/12:00am 12.6 12.7 10.0 84 1.3 CALM 0 0 0 0 1024.0 1023.5 0.0
 
Date/Time
EST
Temp
°C
App
Temp
°C
Dew
Point
Rel
Hum
%
Delta-T
°C
Wind Press
QNH
hPa
Press
MSL
hPa
Rain
since 9 am
mm
Dir
 
Spd
km/h
Gust
km/h
Spd
kts
Gust
kts
26/11:30pm 13.1 13.2 10.3 83 1.5 CALM 0 0 0 0 1024.2 - 0.0
26/11:00pm 13.2 13.1 9.6 79 1.9 CALM 0 0 0 0 1024.3 - 0.0
26/10:30pm 13.8 13.9 10.0 78 2.0 CALM 0 0 0 0 1024.7 - 0.0
26/10:00pm 14.5 13.7 9.5 72 2.6 SSE 4 7 2 4 1024.6 - 0.0
26/09:30pm 16.0 15.2 11.0 72 2.7 SE 6 9 3 5 1024.7 - 0.0
26/09:00pm 15.8 14.5 9.9 68 3.1 ESE 7 11 4 6 1024.5 1024.0 0.0
26/08:30pm 17.3 16.3 10.2 63 3.8 SE 6 7 3 4 1024.9 - 0.0
26/08:00pm 18.5 17.4 10.6 60 4.3 ESE 7 11 4 6 1024.9 - 0.0
26/07:30pm 18.8 17.9 10.6 59 4.5 ESE 6 7 3 4 1024.6 - 0.0
26/07:00pm 20.3 18.5 11.0 55 5.1 ESE 11 17 6 9 1024.1 - 0.0
26/06:30pm 20.8 19.5 11.4 55 5.2 ESE 9 13 5 7 1023.9 - 0.0
26/06:00pm 20.7 19.7 11.1 54 5.3 SE 7 9 4 5 1023.5 1023.0 0.0
26/05:30pm 21.6 20.8 11.0 51 5.9 SE 6 9 3 5 1023.5 - 0.0
26/05:00pm 22.4 21.2 11.5 50 6.1 SE 9 15 5 8 1023.3 - 0.0
26/04:30pm 23.0 21.2 10.8 46 6.8 ESE 11 15 6 8 1023.0 - 0.0
26/04:00pm 24.0 22.9 10.7 43 7.4 SE 7 11 4 6 1022.7 - 0.0
26/03:30pm 24.4 23.4 10.3 41 7.9 E 6 15 3 8 1022.4 - 0.0
26/03:00pm 24.6 22.2 10.1 40 8.0 E 13 22 7 12 1022.4 1022.0 0.0
26/02:30pm 24.2 21.6 9.4 39 8.1 E 13 20 7 11 1022.8 - 0.0
26/02:00pm 24.2 21.5 9.0 38 8.3 ESE 13 17 7 9 1022.9 - 0.0
26/01:30pm 24.6 20.7 8.5 36 8.7 ENE 19 24 10 13 1023.6 - 0.0
26/01:00pm 24.1 21.2 8.1 36 8.6 ESE 13 22 7 12 1024.2 - 0.0
26/12:30pm 24.0 21.0 7.6 35 8.7 ESE 13 19 7 10 1024.8 - 0.0
26/12:00pm 23.9 20.5 7.5 35 8.6 ESE 15 24 8 13 1025.4 1024.9 0.0
26/11:30am 23.5 20.5 9.1 40 7.8 ESE 15 22 8 12 1026.0 - 0.0
26/11:00am 23.1 20.0 10.2 44 7.1 ESE 17 22 9 12 1026.7 - 0.0
26/10:30am 21.2 18.9 10.4 50 5.9 SE 13 20 7 11 1027.2 - 0.0
26/10:00am 20.4 16.6 11.1 55 5.2 E 22 30 12 16 1027.3 - 0.0
26/09:30am 18.9 17.8 11.9 64 3.9 SSE 9 13 5 7 1027.5 - 0.0
26/09:00am 17.1 15.5 11.6 70 3.0 SE 11 17 6 9 1027.6 1027.2 0.0
26/08:30am 15.7 14.7 11.1 74 2.5 SSE 7 11 4 6 1027.4 - 0.0
26/08:00am 14.5 13.5 11.1 80 1.8 S 7 13 4 7 1027.1 - 0.0
26/07:30am 13.5 12.5 10.9 84 1.4 SE 7 11 4 6 1026.8 - 0.0
26/07:00am 12.2 11.0 10.4 89 0.9 SSE 7 11 4 6 1026.8 - 0.0
26/06:30am 11.6 10.3 9.3 86 1.2 ESE 6 7 3 4 1027.2 - 0.0
26/06:00am 12.2 10.9 10.1 87 1.1 SE 7 9 4 5 1027.3 1026.9 0.0
26/05:30am 12.0 10.7 10.1 88 1.0 SE 7 13 4 7 1027.1 - 0.0
26/05:00am 11.1 9.7 9.4 89 0.9 E 7 11 4 6 1027.2 - 0.0
26/04:30am 11.0 9.6 8.9 87 1.1 SE 6 7 3 4 1027.0 - 0.0
26/04:00am 11.3 10.7 9.0 86 1.2 SE 2 7 1 4 1026.6 - 0.0
26/03:30am 11.9 10.6 9.3 84 1.3 ESE 6 7 3 4 1026.4 - 0.0
26/03:00am 13.2 12.0 9.6 79 1.8 S 6 7 3 4 1027.0 1026.6 0.0
26/02:30am 14.7 13.8 10.5 76 2.2 S 6 7 3 4 1026.9 - 0.0
26/02:00am 14.8 14.6 10.4 75 2.3 ESE 2 7 1 4 1027.0 - 0.0
26/01:30am 16.3 15.4 11.2 72 2.8 ESE 7 11 4 6 1027.1 - 0.0
26/01:00am 16.6 15.0 11.7 73 2.7 ESE 11 17 6 9 1027.0 - 0.0
26/12:30am 16.5 16.0 12.5 77 2.2 ESE 7 11 4 6 1027.2 - 0.0
26/12:00am 16.6 16.1 12.8 78 2.1 SE 7 11 4 6 1027.3 1026.9 0.0
 
Date/Time
EST
Temp
°C
App
Temp
°C
Dew
Point
Rel
Hum
%
Delta-T
°C
Wind Press
QNH
hPa
Press
MSL
hPa
Rain
since 9 am
mm
Dir
 
Spd
km/h
Gust
km/h
Spd
kts
Gust
kts
25/11:30pm 16.6 15.8 12.8 78 2.1 SE 9 11 5 6 1027.4 - 0.0
25/11:00pm 16.4 15.2 12.9 80 2.0 ESE 11 13 6 7 1027.5 - 0.0
25/10:30pm 16.5 14.9 12.7 78 2.1 E 13 19 7 10 1027.9 - 0.0
25/10:00pm 17.0 15.9 13.1 78 2.2 ESE 11 15 6 8 1027.9 - 0.0
25/09:30pm 17.5 16.4 13.0 75 2.5 ESE 11 17 6 9 1027.6 - 0.0
25/09:00pm 18.4 16.6 13.3 72 2.9 ESE 15 22 8 12 1027.7 1027.3 0.0
25/08:30pm 18.9 17.5 13.3 70 3.2 ESE 13 20 7 11 1027.8 - 0.0
25/08:00pm 19.2 17.3 12.9 67 3.6 ESE 15 22 8 12 1027.6 - 0.0

Other Formats:

Comma delimited format used in spreadsheet applications
http://www.bom.gov.au/fwo/IDQ60801/IDQ60801.94376.axf

JavaScript Object Notation format (JSON) in row-major order
http://www.bom.gov.au/fwo/IDQ60801/IDQ60801.94376.json